sensor_id;sensor_type;location;lat;lon;timestamp;temperature;humidity
5705;DHT22;2877;48.238;11.160;2024-03-07T00:01:23;3.60;99.90
5705;DHT22;2877;48.238;11.160;2024-03-07T00:03:52;3.50;99.90
5705;DHT22;2877;48.238;11.160;2024-03-07T00:06:17;3.60;99.90
5705;DHT22;2877;48.238;11.160;2024-03-07T00:08:43;3.60;99.90
5705;DHT22;2877;48.238;11.160;2024-03-07T00:11:08;3.70;99.90
5705;DHT22;2877;48.238;11.160;2024-03-07T00:13:34;3.80;99.90
5705;DHT22;2877;48.238;11.160;2024-03-07T00:16:00;3.80;99.90
5705;DHT22;2877;48.238;11.160;2024-03-07T00:18:27;3.80;99.90
5705;DHT22;2877;48.238;11.160;2024-03-07T00:20:52;3.80;99.90
5705;DHT22;2877;48.238;11.160;2024-03-07T00:23:20;3.80;99.90
5705;DHT22;2877;48.238;11.160;2024-03-07T00:25:45;3.80;99.90
5705;DHT22;2877;48.238;11.160;2024-03-07T00:28:14;3.80;99.90
5705;DHT22;2877;48.238;11.160;2024-03-07T00:30:42;3.80;99.90
5705;DHT22;2877;48.238;11.160;2024-03-07T00:33:10;3.80;99.90
5705;DHT22;2877;48.238;11.160;2024-03-07T00:35:35;3.80;99.90
5705;DHT22;2877;48.238;11.160;2024-03-07T00:38:01;3.80;99.90
5705;DHT22;2877;48.238;11.160;2024-03-07T00:40:27;3.80;99.90
5705;DHT22;2877;48.238;11.160;2024-03-07T00:42:53;3.90;99.90
5705;DHT22;2877;48.238;11.160;2024-03-07T00:45:19;3.90;99.90
5705;DHT22;2877;48.238;11.160;2024-03-07T00:47:44;3.80;99.90
5705;DHT22;2877;48.238;11.160;2024-03-07T00:50:10;3.80;99.90
5705;DHT22;2877;48.238;11.160;2024-03-07T00:52:35;3.90;99.90
5705;DHT22;2877;48.238;11.160;2024-03-07T00:55:02;3.90;99.90
5705;DHT22;2877;48.238;11.160;2024-03-07T00:57:27;3.90;99.90
5705;DHT22;2877;48.238;11.160;2024-03-07T00:59:53;3.80;99.90
5705;DHT22;2877;48.238;11.160;2024-03-07T01:02:19;3.80;99.90
5705;DHT22;2877;48.238;11.160;2024-03-07T01:04:44;3.80;99.90
5705;DHT22;2877;48.238;11.160;2024-03-07T01:07:10;3.70;99.90
5705;DHT22;2877;48.238;11.160;2024-03-07T01:09:36;3.70;99.90
5705;DHT22;2877;48.238;11.160;2024-03-07T01:12:02;3.70;99.90
5705;DHT22;2877;48.238;11.160;2024-03-07T01:14:31;3.70;99.90
5705;DHT22;2877;48.238;11.160;2024-03-07T01:16:56;3.70;99.90
5705;DHT22;2877;48.238;11.160;2024-03-07T01:19:22;3.80;99.90
5705;DHT22;2877;48.238;11.160;2024-03-07T01:21:48;3.70;99.90
5705;DHT22;2877;48.238;11.160;2024-03-07T01:24:13;3.70;99.90
5705;DHT22;2877;48.238;11.160;2024-03-07T01:26:43;3.70;99.90
5705;DHT22;2877;48.238;11.160;2024-03-07T01:29:09;3.70;99.90
5705;DHT22;2877;48.238;11.160;2024-03-07T01:31:34;3.70;99.90
5705;DHT22;2877;48.238;11.160;2024-03-07T01:34:00;3.60;99.90
5705;DHT22;2877;48.238;11.160;2024-03-07T01:36:25;3.60;99.90
5705;DHT22;2877;48.238;11.160;2024-03-07T01:38:51;3.60;99.90
5705;DHT22;2877;48.238;11.160;2024-03-07T01:41:17;3.50;99.90
5705;DHT22;2877;48.238;11.160;2024-03-07T01:43:42;3.50;99.90
5705;DHT22;2877;48.238;11.160;2024-03-07T01:46:09;3.40;99.90
5705;DHT22;2877;48.238;11.160;2024-03-07T01:48:35;3.40;99.90
5705;DHT22;2877;48.238;11.160;2024-03-07T01:51:03;3.50;99.90
5705;DHT22;2877;48.238;11.160;2024-03-07T01:53:30;3.50;99.90
5705;DHT22;2877;48.238;11.160;2024-03-07T01:55:56;3.40;99.90
5705;DHT22;2877;48.238;11.160;2024-03-07T01:58:24;3.50;99.90
5705;DHT22;2877;48.238;11.160;2024-03-07T02:00:50;3.50;99.90
5705;DHT22;2877;48.238;11.160;2024-03-07T02:03:16;3.50;99.90
5705;DHT22;2877;48.238;11.160;2024-03-07T02:05:42;3.40;99.90
5705;DHT22;2877;48.238;11.160;2024-03-07T02:08:07;3.40;99.90
5705;DHT22;2877;48.238;11.160;2024-03-07T02:10:33;3.50;99.90
5705;DHT22;2877;48.238;11.160;2024-03-07T02:12:58;3.50;99.90
5705;DHT22;2877;48.238;11.160;2024-03-07T02:15:26;3.40;99.90
5705;DHT22;2877;48.238;11.160;2024-03-07T02:17:52;3.40;99.90
5705;DHT22;2877;48.238;11.160;2024-03-07T02:20:17;3.30;99.90
5705;DHT22;2877;48.238;11.160;2024-03-07T02:22:43;3.40;99.90
5705;DHT22;2877;48.238;11.160;2024-03-07T02:25:08;3.30;99.90
5705;DHT22;2877;48.238;11.160;2024-03-07T02:27:38;3.30;99.90
5705;DHT22;2877;48.238;11.160;2024-03-07T02:30:04;3.40;99.90
5705;DHT22;2877;48.238;11.160;2024-03-07T02:32:34;3.40;99.90
5705;DHT22;2877;48.238;11.160;2024-03-07T02:34:59;3.40;99.90
5705;DHT22;2877;48.238;11.160;2024-03-07T02:37:25;3.40;99.90
5705;DHT22;2877;48.238;11.160;2024-03-07T02:39:50;3.50;99.90
5705;DHT22;2877;48.238;11.160;2024-03-07T02:42:16;3.50;99.90
5705;DHT22;2877;48.238;11.160;2024-03-07T02:44:41;3.50;99.90
5705;DHT22;2877;48.238;11.160;2024-03-07T02:47:07;3.50;99.90
5705;DHT22;2877;48.238;11.160;2024-03-07T02:49:33;3.50;99.90
5705;DHT22;2877;48.238;11.160;2024-03-07T02:51:59;3.60;99.90
5705;DHT22;2877;48.238;11.160;2024-03-07T02:54:24;3.60;99.90
5705;DHT22;2877;48.238;11.160;2024-03-07T02:56:50;3.60;99.90
5705;DHT22;2877;48.238;11.160;2024-03-07T02:59:15;3.60;99.90
5705;DHT22;2877;48.238;11.160;2024-03-07T03:01:42;3.50;99.90
5705;DHT22;2877;48.238;11.160;2024-03-07T03:04:07;3.50;99.90
5705;DHT22;2877;48.238;11.160;2024-03-07T03:06:33;3.50;99.90
5705;DHT22;2877;48.238;11.160;2024-03-07T03:08:58;3.50;99.90
5705;DHT22;2877;48.238;11.160;2024-03-07T03:11:24;3.50;99.90
5705;DHT22;2877;48.238;11.160;2024-03-07T03:13:51;3.50;99.90
5705;DHT22;2877;48.238;11.160;2024-03-07T03:16:17;3.50;99.90
5705;DHT22;2877;48.238;11.160;2024-03-07T03:18:42;3.40;99.90
5705;DHT22;2877;48.238;11.160;2024-03-07T03:21:08;3.40;99.90
5705;DHT22;2877;48.238;11.160;2024-03-07T03:23:34;3.40;99.90
5705;DHT22;2877;48.238;11.160;2024-03-07T03:26:00;3.40;99.90
5705;DHT22;2877;48.238;11.160;2024-03-07T03:28:25;3.40;99.90
5705;DHT22;2877;48.238;11.160;2024-03-07T03:30:51;3.50;99.90
5705;DHT22;2877;48.238;11.160;2024-03-07T03:33:17;3.50;99.90
5705;DHT22;2877;48.238;11.160;2024-03-07T03:35:43;3.50;99.90
5705;DHT22;2877;48.238;11.160;2024-03-07T03:38:10;3.50;99.90
5705;DHT22;2877;48.238;11.160;2024-03-07T03:40:36;3.50;99.90
5705;DHT22;2877;48.238;11.160;2024-03-07T03:43:02;3.50;99.90
5705;DHT22;2877;48.238;11.160;2024-03-07T03:45:27;3.50;99.90
5705;DHT22;2877;48.238;11.160;2024-03-07T03:47:54;3.40;99.90
5705;DHT22;2877;48.238;11.160;2024-03-07T03:50:19;3.40;99.90
5705;DHT22;2877;48.238;11.160;2024-03-07T03:52:45;3.40;99.90
5705;DHT22;2877;48.238;11.160;2024-03-07T03:55:11;3.40;99.90
5705;DHT22;2877;48.238;11.160;2024-03-07T03:57:39;3.30;99.90
5705;DHT22;2877;48.238;11.160;2024-03-07T04:00:06;3.20;99.90
5705;DHT22;2877;48.238;11.160;2024-03-07T04:02:46;3.20;99.90
5705;DHT22;2877;48.238;11.160;2024-03-07T04:05:17;3.10;99.90
5705;DHT22;2877;48.238;11.160;2024-03-07T04:07:43;3.00;99.90
5705;DHT22;2877;48.238;11.160;2024-03-07T04:10:10;3.00;99.90
5705;DHT22;2877;48.238;11.160;2024-03-07T04:12:40;2.90;99.90
5705;DHT22;2877;48.238;11.160;2024-03-07T04:15:07;2.70;99.90
5705;DHT22;2877;48.238;11.160;2024-03-07T04:17:34;2.70;99.90
5705;DHT22;2877;48.238;11.160;2024-03-07T04:20:00;2.60;99.90
5705;DHT22;2877;48.238;11.160;2024-03-07T04:22:27;2.50;99.90
5705;DHT22;2877;48.238;11.160;2024-03-07T04:24:53;2.50;99.90
5705;DHT22;2877;48.238;11.160;2024-03-07T04:27:21;2.40;99.90
5705;DHT22;2877;48.238;11.160;2024-03-07T04:29:47;2.30;99.90
5705;DHT22;2877;48.238;11.160;2024-03-07T04:32:13;2.20;99.90
5705;DHT22;2877;48.238;11.160;2024-03-07T04:34:39;2.10;99.90
5705;DHT22;2877;48.238;11.160;2024-03-07T04:37:04;2.10;99.90
5705;DHT22;2877;48.238;11.160;2024-03-07T04:39:30;2.10;99.90
5705;DHT22;2877;48.238;11.160;2024-03-07T04:41:59;2.00;99.90
5705;DHT22;2877;48.238;11.160;2024-03-07T04:44:28;1.90;99.90
5705;DHT22;2877;48.238;11.160;2024-03-07T04:46:54;1.90;99.90
5705;DHT22;2877;48.238;11.160;2024-03-07T04:49:23;1.90;99.90
5705;DHT22;2877;48.238;11.160;2024-03-07T04:51:56;1.80;99.90
5705;DHT22;2877;48.238;11.160;2024-03-07T04:54:22;1.80;99.90
5705;DHT22;2877;48.238;11.160;2024-03-07T04:56:49;1.80;99.90
5705;DHT22;2877;48.238;11.160;2024-03-07T04:59:15;1.80;99.90
5705;DHT22;2877;48.238;11.160;2024-03-07T05:01:42;1.70;99.90
5705;DHT22;2877;48.238;11.160;2024-03-07T05:04:08;1.70;99.90
5705;DHT22;2877;48.238;11.160;2024-03-07T05:06:34;1.70;99.90
5705;DHT22;2877;48.238;11.160;2024-03-07T05:09:04;1.70;99.90
5705;DHT22;2877;48.238;11.160;2024-03-07T05:11:30;1.70;99.90
5705;DHT22;2877;48.238;11.160;2024-03-07T05:13:57;1.60;99.90
5705;DHT22;2877;48.238;11.160;2024-03-07T05:16:30;1.60;99.90
5705;DHT22;2877;48.238;11.160;2024-03-07T05:18:56;1.60;99.90
5705;DHT22;2877;48.238;11.160;2024-03-07T05:21:25;1.50;99.90
5705;DHT22;2877;48.238;11.160;2024-03-07T05:24:06;1.50;99.90
5705;DHT22;2877;48.238;11.160;2024-03-07T05:26:33;1.50;99.90
5705;DHT22;2877;48.238;11.160;2024-03-07T05:29:03;1.50;99.90
5705;DHT22;2877;48.238;11.160;2024-03-07T05:31:33;1.50;99.90
5705;DHT22;2877;48.238;11.160;2024-03-07T05:34:00;1.40;99.90
5705;DHT22;2877;48.238;11.160;2024-03-07T05:36:29;1.40;99.90
5705;DHT22;2877;48.238;11.160;2024-03-07T05:38:56;1.30;99.90
5705;DHT22;2877;48.238;11.160;2024-03-07T05:41:21;1.20;99.90
5705;DHT22;2877;48.238;11.160;2024-03-07T05:43:47;1.20;99.90
5705;DHT22;2877;48.238;11.160;2024-03-07T05:46:12;1.10;99.90
5705;DHT22;2877;48.238;11.160;2024-03-07T05:48:38;1.00;99.90
5705;DHT22;2877;48.238;11.160;2024-03-07T05:51:03;0.90;99.90
5705;DHT22;2877;48.238;11.160;2024-03-07T05:53:29;0.90;99.90
5705;DHT22;2877;48.238;11.160;2024-03-07T05:55:55;0.90;99.90
5705;DHT22;2877;48.238;11.160;2024-03-07T05:58:20;0.80;99.90
5705;DHT22;2877;48.238;11.160;2024-03-07T06:00:47;0.90;99.90
5705;DHT22;2877;48.238;11.160;2024-03-07T06:03:18;0.90;99.90
5705;DHT22;2877;48.238;11.160;2024-03-07T06:05:49;0.90;99.90
5705;DHT22;2877;48.238;11.160;2024-03-07T06:08:16;0.90;99.90
5705;DHT22;2877;48.238;11.160;2024-03-07T06:10:42;0.90;99.90
5705;DHT22;2877;48.238;11.160;2024-03-07T06:13:08;0.90;99.90
5705;DHT22;2877;48.238;11.160;2024-03-07T06:15:35;0.80;99.90
5705;DHT22;2877;48.238;11.160;2024-03-07T06:18:01;0.80;99.90
5705;DHT22;2877;48.238;11.160;2024-03-07T06:20:26;0.80;99.90
5705;DHT22;2877;48.238;11.160;2024-03-07T06:22:52;0.70;99.90
5705;DHT22;2877;48.238;11.160;2024-03-07T06:25:20;0.70;99.90
5705;DHT22;2877;48.238;11.160;2024-03-07T06:27:59;0.70;99.90
5705;DHT22;2877;48.238;11.160;2024-03-07T06:30:34;0.70;99.90
5705;DHT22;2877;48.238;11.160;2024-03-07T06:33:01;0.80;99.90
5705;DHT22;2877;48.238;11.160;2024-03-07T06:35:26;0.80;99.90
5705;DHT22;2877;48.238;11.160;2024-03-07T06:37:52;0.80;99.90
5705;DHT22;2877;48.238;11.160;2024-03-07T06:40:17;0.80;99.90
5705;DHT22;2877;48.238;11.160;2024-03-07T06:42:46;0.80;99.90
5705;DHT22;2877;48.238;11.160;2024-03-07T06:45:12;0.80;99.90
5705;DHT22;2877;48.238;11.160;2024-03-07T06:47:37;0.80;99.90
5705;DHT22;2877;48.238;11.160;2024-03-07T06:50:03;0.90;99.90
5705;DHT22;2877;48.238;11.160;2024-03-07T06:52:29;0.90;99.90
5705;DHT22;2877;48.238;11.160;2024-03-07T06:54:55;1.00;99.90
5705;DHT22;2877;48.238;11.160;2024-03-07T06:57:21;1.10;99.90
5705;DHT22;2877;48.238;11.160;2024-03-07T06:59:47;1.20;99.90
5705;DHT22;2877;48.238;11.160;2024-03-07T07:02:13;1.30;99.90
5705;DHT22;2877;48.238;11.160;2024-03-07T07:04:39;1.40;99.90
5705;DHT22;2877;48.238;11.160;2024-03-07T07:07:08;1.60;99.90
5705;DHT22;2877;48.238;11.160;2024-03-07T07:09:38;1.70;99.90
5705;DHT22;2877;48.238;11.160;2024-03-07T07:12:04;1.70;99.90
5705;DHT22;2877;48.238;11.160;2024-03-07T07:14:29;1.80;99.90
5705;DHT22;2877;48.238;11.160;2024-03-07T07:16:55;1.90;99.90
5705;DHT22;2877;48.238;11.160;2024-03-07T07:19:22;1.90;99.90
5705;DHT22;2877;48.238;11.160;2024-03-07T07:21:47;1.90;99.90
5705;DHT22;2877;48.238;11.160;2024-03-07T07:24:22;2.00;99.90
5705;DHT22;2877;48.238;11.160;2024-03-07T07:26:51;2.10;99.90
5705;DHT22;2877;48.238;11.160;2024-03-07T07:29:17;2.20;99.90
5705;DHT22;2877;48.238;11.160;2024-03-07T07:31:43;2.30;99.90
5705;DHT22;2877;48.238;11.160;2024-03-07T07:34:10;2.40;99.90
5705;DHT22;2877;48.238;11.160;2024-03-07T07:36:36;2.50;99.90
5705;DHT22;2877;48.238;11.160;2024-03-07T07:39:02;2.60;99.90
5705;DHT22;2877;48.238;11.160;2024-03-07T07:41:28;2.60;99.90
5705;DHT22;2877;48.238;11.160;2024-03-07T07:43:54;2.60;99.90
5705;DHT22;2877;48.238;11.160;2024-03-07T07:46:20;2.60;99.90
5705;DHT22;2877;48.238;11.160;2024-03-07T07:48:45;2.50;99.90
5705;DHT22;2877;48.238;11.160;2024-03-07T07:51:12;2.60;99.90
5705;DHT22;2877;48.238;11.160;2024-03-07T07:53:38;2.70;99.90
5705;DHT22;2877;48.238;11.160;2024-03-07T07:56:04;2.70;99.90
5705;DHT22;2877;48.238;11.160;2024-03-07T07:58:30;2.80;99.90
5705;DHT22;2877;48.238;11.160;2024-03-07T08:00:55;2.80;99.90
5705;DHT22;2877;48.238;11.160;2024-03-07T08:03:21;2.80;99.90
5705;DHT22;2877;48.238;11.160;2024-03-07T08:05:47;2.80;99.90
5705;DHT22;2877;48.238;11.160;2024-03-07T08:08:13;2.80;99.90
5705;DHT22;2877;48.238;11.160;2024-03-07T08:10:42;2.80;99.90
5705;DHT22;2877;48.238;11.160;2024-03-07T08:13:07;2.80;99.90
5705;DHT22;2877;48.238;11.160;2024-03-07T08:15:36;2.80;99.90
5705;DHT22;2877;48.238;11.160;2024-03-07T08:18:02;2.90;99.90
5705;DHT22;2877;48.238;11.160;2024-03-07T08:20:33;2.90;99.90
5705;DHT22;2877;48.238;11.160;2024-03-07T08:23:00;3.00;99.90
5705;DHT22;2877;48.238;11.160;2024-03-07T08:25:27;3.00;99.90
5705;DHT22;2877;48.238;11.160;2024-03-07T08:27:55;3.00;99.90
5705;DHT22;2877;48.238;11.160;2024-03-07T08:30:22;2.90;99.90
5705;DHT22;2877;48.238;11.160;2024-03-07T08:32:52;3.10;99.90
5705;DHT22;2877;48.238;11.160;2024-03-07T08:35:18;3.00;99.90
5705;DHT22;2877;48.238;11.160;2024-03-07T08:37:46;3.00;99.90
5705;DHT22;2877;48.238;11.160;2024-03-07T08:40:12;3.00;99.90
5705;DHT22;2877;48.238;11.160;2024-03-07T08:42:48;3.10;99.90
5705;DHT22;2877;48.238;11.160;2024-03-07T08:45:15;3.20;99.90
5705;DHT22;2877;48.238;11.160;2024-03-07T08:47:45;3.30;99.90
5705;DHT22;2877;48.238;11.160;2024-03-07T08:50:12;3.30;99.90
5705;DHT22;2877;48.238;11.160;2024-03-07T08:52:38;3.40;99.90
5705;DHT22;2877;48.238;11.160;2024-03-07T08:55:12;3.30;99.90
5705;DHT22;2877;48.238;11.160;2024-03-07T08:57:40;3.30;99.90
5705;DHT22;2877;48.238;11.160;2024-03-07T09:00:07;3.40;99.90
5705;DHT22;2877;48.238;11.160;2024-03-07T09:02:40;3.30;99.90
5705;DHT22;2877;48.238;11.160;2024-03-07T09:05:06;3.30;99.90
5705;DHT22;2877;48.238;11.160;2024-03-07T09:07:32;3.40;99.90
5705;DHT22;2877;48.238;11.160;2024-03-07T09:09:58;3.40;99.90
5705;DHT22;2877;48.238;11.160;2024-03-07T09:12:23;3.40;99.90
5705;DHT22;2877;48.238;11.160;2024-03-07T09:14:54;3.50;99.90
5705;DHT22;2877;48.238;11.160;2024-03-07T09:17:21;3.50;99.90
5705;DHT22;2877;48.238;11.160;2024-03-07T09:19:47;3.60;99.90
5705;DHT22;2877;48.238;11.160;2024-03-07T09:22:12;3.70;99.90
5705;DHT22;2877;48.238;11.160;2024-03-07T09:24:38;3.80;99.90
5705;DHT22;2877;48.238;11.160;2024-03-07T09:27:04;3.80;99.90
5705;DHT22;2877;48.238;11.160;2024-03-07T09:29:30;3.80;99.90
5705;DHT22;2877;48.238;11.160;2024-03-07T09:31:55;3.80;99.90
5705;DHT22;2877;48.238;11.160;2024-03-07T09:34:23;3.90;99.90
5705;DHT22;2877;48.238;11.160;2024-03-07T09:36:48;3.90;99.90
5705;DHT22;2877;48.238;11.160;2024-03-07T09:39:17;3.90;99.90
5705;DHT22;2877;48.238;11.160;2024-03-07T09:41:44;4.00;99.90
5705;DHT22;2877;48.238;11.160;2024-03-07T09:44:14;4.00;99.90
5705;DHT22;2877;48.238;11.160;2024-03-07T09:46:40;4.10;99.90
5705;DHT22;2877;48.238;11.160;2024-03-07T09:49:07;4.30;99.90
5705;DHT22;2877;48.238;11.160;2024-03-07T09:51:35;4.40;99.90
5705;DHT22;2877;48.238;11.160;2024-03-07T09:54:01;4.50;99.90
5705;DHT22;2877;48.238;11.160;2024-03-07T09:56:28;4.60;99.90
5705;DHT22;2877;48.238;11.160;2024-03-07T09:58:58;4.60;99.90
5705;DHT22;2877;48.238;11.160;2024-03-07T10:01:27;4.80;99.90
5705;DHT22;2877;48.238;11.160;2024-03-07T10:03:59;5.10;99.90
5705;DHT22;2877;48.238;11.160;2024-03-07T10:06:37;5.30;99.90
5705;DHT22;2877;48.238;11.160;2024-03-07T10:09:04;5.50;99.90
5705;DHT22;2877;48.238;11.160;2024-03-07T10:11:30;5.70;99.90
5705;DHT22;2877;48.238;11.160;2024-03-07T10:13:56;5.90;99.90
5705;DHT22;2877;48.238;11.160;2024-03-07T10:16:21;6.00;99.90
5705;DHT22;2877;48.238;11.160;2024-03-07T10:18:48;6.10;99.90
5705;DHT22;2877;48.238;11.160;2024-03-07T10:21:19;6.20;99.90
5705;DHT22;2877;48.238;11.160;2024-03-07T10:23:44;6.20;99.90
5705;DHT22;2877;48.238;11.160;2024-03-07T10:26:10;6.40;99.90
5705;DHT22;2877;48.238;11.160;2024-03-07T10:28:37;6.50;99.90
5705;DHT22;2877;48.238;11.160;2024-03-07T10:31:04;6.70;99.90
5705;DHT22;2877;48.238;11.160;2024-03-07T10:33:34;6.90;99.90
5705;DHT22;2877;48.238;11.160;2024-03-07T10:36:00;6.90;99.90
5705;DHT22;2877;48.238;11.160;2024-03-07T10:38:27;6.90;99.90
5705;DHT22;2877;48.238;11.160;2024-03-07T10:40:54;6.90;99.90
5705;DHT22;2877;48.238;11.160;2024-03-07T10:43:21;6.80;99.90
5705;DHT22;2877;48.238;11.160;2024-03-07T10:45:48;7.00;99.90
5705;DHT22;2877;48.238;11.160;2024-03-07T10:48:18;7.10;99.90
5705;DHT22;2877;48.238;11.160;2024-03-07T10:50:49;7.10;99.90
5705;DHT22;2877;48.238;11.160;2024-03-07T10:54:05;7.20;99.90
5705;DHT22;2877;48.238;11.160;2024-03-07T10:59:31;7.00;99.90
5705;DHT22;2877;48.238;11.160;2024-03-07T11:04:53;7.20;99.90
5705;DHT22;2877;48.238;11.160;2024-03-07T11:07:22;7.30;99.90
5705;DHT22;2877;48.238;11.160;2024-03-07T11:09:52;7.40;99.90
5705;DHT22;2877;48.238;11.160;2024-03-07T11:12:24;7.30;99.90
5705;DHT22;2877;48.238;11.160;2024-03-07T11:14:53;7.40;99.90
5705;DHT22;2877;48.238;11.160;2024-03-07T11:17:21;7.60;99.90
5705;DHT22;2877;48.238;11.160;2024-03-07T11:19:47;7.80;99.90
5705;DHT22;2877;48.238;11.160;2024-03-07T11:22:30;7.70;99.90
5705;DHT22;2877;48.238;11.160;2024-03-07T11:25:02;7.80;99.90
5705;DHT22;2877;48.238;11.160;2024-03-07T11:27:33;7.80;99.90
5705;DHT22;2877;48.238;11.160;2024-03-07T11:30:07;7.90;99.90
5705;DHT22;2877;48.238;11.160;2024-03-07T11:32:40;8.10;99.90
5705;DHT22;2877;48.238;11.160;2024-03-07T11:35:13;8.10;99.90
5705;DHT22;2877;48.238;11.160;2024-03-07T11:37:42;8.00;99.90
5705;DHT22;2877;48.238;11.160;2024-03-07T11:42:47;7.80;99.90
5705;DHT22;2877;48.238;11.160;2024-03-07T11:45:17;7.50;99.90
5705;DHT22;2877;48.238;11.160;2024-03-07T11:47:58;7.40;99.90
5705;DHT22;2877;48.238;11.160;2024-03-07T11:50:39;7.50;99.90
5705;DHT22;2877;48.238;11.160;2024-03-07T11:53:07;7.50;99.90
5705;DHT22;2877;48.238;11.160;2024-03-07T11:55:34;7.60;99.90
5705;DHT22;2877;48.238;11.160;2024-03-07T11:58:17;7.50;99.90
5705;DHT22;2877;48.238;11.160;2024-03-07T12:00:44;7.60;99.90
5705;DHT22;2877;48.238;11.160;2024-03-07T12:03:14;7.70;99.90
5705;DHT22;2877;48.238;11.160;2024-03-07T12:05:42;7.60;99.90
5705;DHT22;2877;48.238;11.160;2024-03-07T12:08:09;7.60;99.90
5705;DHT22;2877;48.238;11.160;2024-03-07T12:10:36;7.60;99.90
5705;DHT22;2877;48.238;11.160;2024-03-07T12:13:04;7.60;99.90
5705;DHT22;2877;48.238;11.160;2024-03-07T12:15:30;7.60;99.90
5705;DHT22;2877;48.238;11.160;2024-03-07T12:17:57;7.60;99.90
5705;DHT22;2877;48.238;11.160;2024-03-07T12:20:23;7.70;99.90
5705;DHT22;2877;48.238;11.160;2024-03-07T12:23:00;7.90;99.90
5705;DHT22;2877;48.238;11.160;2024-03-07T12:25:31;8.00;99.90
5705;DHT22;2877;48.238;11.160;2024-03-07T12:28:04;8.00;99.90
5705;DHT22;2877;48.238;11.160;2024-03-07T12:30:54;8.00;99.90
5705;DHT22;2877;48.238;11.160;2024-03-07T12:33:20;8.10;99.90
5705;DHT22;2877;48.238;11.160;2024-03-07T12:35:47;8.10;99.90
5705;DHT22;2877;48.238;11.160;2024-03-07T12:38:15;8.40;99.90
5705;DHT22;2877;48.238;11.160;2024-03-07T12:40:45;8.70;99.90
5705;DHT22;2877;48.238;11.160;2024-03-07T12:43:18;8.90;99.90
5705;DHT22;2877;48.238;11.160;2024-03-07T12:45:53;9.40;99.90
5705;DHT22;2877;48.238;11.160;2024-03-07T12:48:20;10.00;99.90
5705;DHT22;2877;48.238;11.160;2024-03-07T12:50:50;9.90;99.90
5705;DHT22;2877;48.238;11.160;2024-03-07T12:53:22;9.80;99.90
5705;DHT22;2877;48.238;11.160;2024-03-07T12:55:49;9.60;99.90
5705;DHT22;2877;48.238;11.160;2024-03-07T12:58:15;9.20;99.90
5705;DHT22;2877;48.238;11.160;2024-03-07T13:00:41;8.90;99.90
5705;DHT22;2877;48.238;11.160;2024-03-07T13:03:08;8.50;99.90
5705;DHT22;2877;48.238;11.160;2024-03-07T13:05:35;8.20;99.90
5705;DHT22;2877;48.238;11.160;2024-03-07T13:08:06;7.90;99.90
5705;DHT22;2877;48.238;11.160;2024-03-07T13:10:31;7.80;99.90
5705;DHT22;2877;48.238;11.160;2024-03-07T13:12:57;7.70;99.90
5705;DHT22;2877;48.238;11.160;2024-03-07T13:15:22;7.50;99.90
5705;DHT22;2877;48.238;11.160;2024-03-07T13:17:49;7.50;99.90
5705;DHT22;2877;48.238;11.160;2024-03-07T13:20:17;7.40;99.90
5705;DHT22;2877;48.238;11.160;2024-03-07T13:22:48;7.40;99.90
5705;DHT22;2877;48.238;11.160;2024-03-07T13:25:16;7.40;99.90
5705;DHT22;2877;48.238;11.160;2024-03-07T13:27:50;7.40;99.90
5705;DHT22;2877;48.238;11.160;2024-03-07T13:30:17;7.40;99.90
5705;DHT22;2877;48.238;11.160;2024-03-07T13:32:49;7.40;99.90
5705;DHT22;2877;48.238;11.160;2024-03-07T13:35:15;7.50;99.90
5705;DHT22;2877;48.238;11.160;2024-03-07T13:37:41;7.50;99.90
5705;DHT22;2877;48.238;11.160;2024-03-07T13:40:07;7.60;99.90
5705;DHT22;2877;48.238;11.160;2024-03-07T13:42:55;7.70;99.90
5705;DHT22;2877;48.238;11.160;2024-03-07T13:45:26;7.80;99.90
5705;DHT22;2877;48.238;11.160;2024-03-07T13:47:53;8.00;99.90
5705;DHT22;2877;48.238;11.160;2024-03-07T13:50:21;8.10;99.90
5705;DHT22;2877;48.238;11.160;2024-03-07T13:52:53;8.30;99.90
5705;DHT22;2877;48.238;11.160;2024-03-07T13:56:27;8.40;99.90
5705;DHT22;2877;48.238;11.160;2024-03-07T13:58:35;8.50;99.90
5705;DHT22;2877;48.238;11.160;2024-03-07T14:01:20;8.50;99.90
5705;DHT22;2877;48.238;11.160;2024-03-07T14:10:16;8.50;99.90
5705;DHT22;2877;48.238;11.160;2024-03-07T14:15:57;8.10;99.90
5705;DHT22;2877;48.238;11.160;2024-03-07T14:24:42;8.10;99.90
5705;DHT22;2877;48.238;11.160;2024-03-07T14:27:33;8.20;99.90
5705;DHT22;2877;48.238;11.160;2024-03-07T14:32:56;7.80;99.90
5705;DHT22;2877;48.238;11.160;2024-03-07T14:38:28;7.60;99.90
5705;DHT22;2877;48.238;11.160;2024-03-07T14:40:55;7.50;99.90
5705;DHT22;2877;48.238;11.160;2024-03-07T14:43:22;7.50;99.90
5705;DHT22;2877;48.238;11.160;2024-03-07T14:45:48;7.60;99.90
5705;DHT22;2877;48.238;11.160;2024-03-07T14:48:16;7.60;99.90
5705;DHT22;2877;48.238;11.160;2024-03-07T14:50:44;7.60;99.90
5705;DHT22;2877;48.238;11.160;2024-03-07T14:53:12;7.60;99.90
5705;DHT22;2877;48.238;11.160;2024-03-07T14:55:39;7.60;99.90
5705;DHT22;2877;48.238;11.160;2024-03-07T14:58:06;7.50;99.90
5705;DHT22;2877;48.238;11.160;2024-03-07T15:00:37;7.50;99.90
5705;DHT22;2877;48.238;11.160;2024-03-07T15:03:08;7.80;99.90
5705;DHT22;2877;48.238;11.160;2024-03-07T15:05:34;7.80;99.90
5705;DHT22;2877;48.238;11.160;2024-03-07T15:08:00;7.70;99.90
5705;DHT22;2877;48.238;11.160;2024-03-07T15:10:30;7.60;99.90
5705;DHT22;2877;48.238;11.160;2024-03-07T15:12:57;7.60;99.90
5705;DHT22;2877;48.238;11.160;2024-03-07T15:15:22;7.60;99.90
5705;DHT22;2877;48.238;11.160;2024-03-07T15:17:50;7.60;99.90
5705;DHT22;2877;48.238;11.160;2024-03-07T15:20:16;7.60;99.90
5705;DHT22;2877;48.238;11.160;2024-03-07T15:22:54;7.40;99.90
5705;DHT22;2877;48.238;11.160;2024-03-07T15:25:21;7.10;99.90
5705;DHT22;2877;48.238;11.160;2024-03-07T15:27:50;6.90;99.90
5705;DHT22;2877;48.238;11.160;2024-03-07T15:30:17;6.80;99.90
5705;DHT22;2877;48.238;11.160;2024-03-07T15:32:44;6.70;99.90
5705;DHT22;2877;48.238;11.160;2024-03-07T15:35:10;6.70;99.90
5705;DHT22;2877;48.238;11.160;2024-03-07T15:37:45;6.60;99.90
5705;DHT22;2877;48.238;11.160;2024-03-07T15:40:12;6.60;99.90
5705;DHT22;2877;48.238;11.160;2024-03-07T15:42:39;6.50;99.90
5705;DHT22;2877;48.238;11.160;2024-03-07T15:45:07;6.50;99.90
5705;DHT22;2877;48.238;11.160;2024-03-07T15:47:48;6.50;99.90
5705;DHT22;2877;48.238;11.160;2024-03-07T15:50:14;6.50;99.90
5705;DHT22;2877;48.238;11.160;2024-03-07T15:52:41;6.40;99.90
5705;DHT22;2877;48.238;11.160;2024-03-07T15:55:10;6.40;99.90
5705;DHT22;2877;48.238;11.160;2024-03-07T15:57:49;6.40;99.90
5705;DHT22;2877;48.238;11.160;2024-03-07T16:00:19;6.30;99.90
5705;DHT22;2877;48.238;11.160;2024-03-07T16:02:58;6.30;99.90
5705;DHT22;2877;48.238;11.160;2024-03-07T16:05:28;6.20;99.90
5705;DHT22;2877;48.238;11.160;2024-03-07T16:07:56;6.20;99.90
5705;DHT22;2877;48.238;11.160;2024-03-07T16:10:23;6.20;99.90
5705;DHT22;2877;48.238;11.160;2024-03-07T16:12:50;6.20;99.90
5705;DHT22;2877;48.238;11.160;2024-03-07T16:15:15;6.20;99.90
5705;DHT22;2877;48.238;11.160;2024-03-07T16:17:41;6.10;99.90
5705;DHT22;2877;48.238;11.160;2024-03-07T16:20:07;6.10;99.90
5705;DHT22;2877;48.238;11.160;2024-03-07T16:22:40;6.00;99.90
5705;DHT22;2877;48.238;11.160;2024-03-07T16:25:07;6.00;99.90
5705;DHT22;2877;48.238;11.160;2024-03-07T16:27:33;6.00;99.90
5705;DHT22;2877;48.238;11.160;2024-03-07T16:29:59;6.00;99.90
5705;DHT22;2877;48.238;11.160;2024-03-07T16:32:24;6.00;99.90
5705;DHT22;2877;48.238;11.160;2024-03-07T16:34:50;5.90;99.90
5705;DHT22;2877;48.238;11.160;2024-03-07T16:37:15;5.90;99.90